createdAt,value
2023-02-21T00:00:09.419Z,10.60
2023-02-21T00:03:00.453Z,10.60
2023-02-21T00:05:47.836Z,10.60
2023-02-21T00:08:35.128Z,10.50
2023-02-21T00:11:23.946Z,10.50
2023-02-21T00:14:11.327Z,10.50
2023-02-21T00:16:58.479Z,10.50
2023-02-21T00:19:45.697Z,10.50
2023-02-21T00:22:32.857Z,10.50
2023-02-21T00:25:20.002Z,10.50
2023-02-21T00:28:07.159Z,10.60
2023-02-21T00:30:54.419Z,10.50
2023-02-21T00:33:42.135Z,10.40
2023-02-21T00:36:29.376Z,10.40
2023-02-21T00:39:16.674Z,10.30
2023-02-21T00:42:03.785Z,10.20
2023-02-21T00:44:51.019Z,10.30
2023-02-21T00:47:38.944Z,10.20
2023-02-21T00:50:26.628Z,10.20
2023-02-21T00:53:13.821Z,10.20
2023-02-21T00:56:00.895Z,10.20
2023-02-21T00:58:48.121Z,10.10
2023-02-21T01:01:35.308Z,10.00
2023-02-21T01:04:22.653Z,10.00
2023-02-21T01:07:11.907Z,10.00
2023-02-21T01:09:59.137Z,9.90
2023-02-21T01:12:46.278Z,9.90
2023-02-21T01:15:34.915Z,9.90
2023-02-21T01:18:22.067Z,9.90
2023-02-21T01:21:09.242Z,9.80
2023-02-21T01:23:56.399Z,9.70
2023-02-21T01:26:43.590Z,9.70
2023-02-21T01:29:30.955Z,9.60
2023-02-21T01:32:20.611Z,9.70
2023-02-21T01:35:07.730Z,9.70
2023-02-21T01:37:54.953Z,9.80
2023-02-21T01:40:42.079Z,9.80
2023-02-21T01:43:42.069Z,9.80
2023-02-21T01:46:38.298Z,9.90
2023-02-21T01:49:36.524Z,10.00
2023-02-21T01:52:26.099Z,10.00
2023-02-21T01:55:15.688Z,10.00
2023-02-21T01:58:05.879Z,10.10
2023-02-21T02:00:53.269Z,10.10
2023-02-21T02:03:41.379Z,10.20
2023-02-21T02:06:32.431Z,10.30
2023-02-21T02:09:42.750Z,10.30
2023-02-21T02:12:49.749Z,10.30
2023-02-21T02:15:43.047Z,10.30
2023-02-21T02:18:50.162Z,10.40
2023-02-21T02:21:57.138Z,10.40
2023-02-21T02:25:04.234Z,10.40
2023-02-21T02:28:01.751Z,10.40
2023-02-21T02:31:09.396Z,10.50
2023-02-21T02:34:01.601Z,10.50
2023-02-21T02:36:50.817Z,10.50
2023-02-21T02:39:57.789Z,10.50
2023-02-21T02:43:05.188Z,10.50
2023-02-21T02:45:59.368Z,10.50
2023-02-21T02:48:35.180Z,10.50
2023-02-21T02:51:07.426Z,10.40
2023-02-21T02:53:36.193Z,10.40
2023-02-21T02:56:10.921Z,10.40
2023-02-21T02:58:45.124Z,10.40
2023-02-21T03:01:40.908Z,10.40
2023-02-21T03:04:45.983Z,10.50
2023-02-21T03:07:54.005Z,10.50
2023-02-21T03:10:52.046Z,10.40
2023-02-21T03:13:34.053Z,10.40
2023-02-21T03:16:18.275Z,10.40
2023-02-21T03:19:05.632Z,10.40
2023-02-21T03:21:43.679Z,10.40
2023-02-21T03:24:14.001Z,10.50
2023-02-21T03:26:45.196Z,10.50
2023-02-21T03:29:34.696Z,10.60
2023-02-21T03:32:26.842Z,10.60
2023-02-21T03:34:55.697Z,10.70
2023-02-21T03:37:46.962Z,10.70
2023-02-21T03:40:18.854Z,10.80
2023-02-21T03:42:51.508Z,10.80
2023-02-21T03:45:20.656Z,10.80
2023-02-21T03:48:04.288Z,10.90
2023-02-21T03:50:33.514Z,10.80
2023-02-21T03:53:01.162Z,10.80
2023-02-21T03:55:30.428Z,10.80
2023-02-21T03:57:58.670Z,10.80
2023-02-21T04:00:26.027Z,10.80
2023-02-21T04:02:56.560Z,10.80
2023-02-21T04:05:32.484Z,10.80
2023-02-21T04:08:00.937Z,10.70
2023-02-21T04:10:28.157Z,10.70
2023-02-21T04:12:56.338Z,10.70
2023-02-21T04:15:23.843Z,10.70
2023-02-21T04:17:51.068Z,10.70
2023-02-21T04:20:18.929Z,10.70
2023-02-21T04:23:02.855Z,10.70
2023-02-21T04:25:31.593Z,10.60
2023-02-21T04:28:03.859Z,10.60
2023-02-21T04:30:31.955Z,10.60
2023-02-21T04:32:59.498Z,10.60
2023-02-21T04:35:27.561Z,10.50
2023-02-21T04:37:57.341Z,10.50
2023-02-21T04:40:26.005Z,10.50
2023-02-21T04:42:53.250Z,10.50
2023-02-21T04:45:20.800Z,10.40
2023-02-21T04:47:49.890Z,10.40
2023-02-21T04:50:17.348Z,10.40
2023-02-21T04:52:44.571Z,10.40
2023-02-21T04:55:11.851Z,10.40
2023-02-21T04:57:38.995Z,10.40
2023-02-21T05:00:08.180Z,10.40
2023-02-21T05:02:35.370Z,10.40
2023-02-21T05:05:03.489Z,10.40
2023-02-21T05:07:30.678Z,10.40
2023-02-21T05:09:57.904Z,10.30
2023-02-21T05:12:25.135Z,10.30
2023-02-21T05:14:52.337Z,10.30
2023-02-21T05:17:19.514Z,10.30
2023-02-21T05:19:48.030Z,10.30
2023-02-21T05:22:20.532Z,10.30
2023-02-21T05:24:49.316Z,10.30
2023-02-21T05:27:18.533Z,10.30
2023-02-21T05:29:50.788Z,10.30
2023-02-21T05:32:19.993Z,10.30
2023-02-21T05:34:47.984Z,10.20
2023-02-21T05:37:17.854Z,10.20
2023-02-21T05:39:45.087Z,10.20
2023-02-21T05:42:12.304Z,10.20
2023-02-21T05:44:39.833Z,10.20
2023-02-21T05:47:07.341Z,10.20
2023-02-21T05:49:34.515Z,10.20
2023-02-21T05:52:02.213Z,10.20
2023-02-21T05:54:29.384Z,10.20
2023-02-21T05:56:56.639Z,10.20
2023-02-21T05:59:23.790Z,10.30
2023-02-21T06:01:52.033Z,10.30
2023-02-21T06:04:19.634Z,10.20
2023-02-21T06:06:46.939Z,10.20
2023-02-21T06:09:14.229Z,10.20
2023-02-21T06:11:41.578Z,10.20
2023-02-21T06:14:15.794Z,10.20
2023-02-21T06:16:43.548Z,10.20
2023-02-21T06:19:12.721Z,10.20
2023-02-21T06:21:42.164Z,10.20
2023-02-21T06:24:10.653Z,10.20
2023-02-21T06:26:38.406Z,10.20
2023-02-21T06:29:05.982Z,10.20
2023-02-21T06:31:33.559Z,10.20
2023-02-21T06:34:01.349Z,10.20
2023-02-21T06:36:30.098Z,10.20
2023-02-21T06:38:58.061Z,10.20
2023-02-21T06:41:30.739Z,10.20
2023-02-21T06:43:58.993Z,10.20
2023-02-21T06:46:29.465Z,10.20
2023-02-21T06:48:57.055Z,10.20
2023-02-21T06:51:29.821Z,10.20
2023-02-21T06:53:58.539Z,10.20
2023-02-21T06:56:27.193Z,10.30
2023-02-21T06:58:54.485Z,10.30
2023-02-21T07:01:23.212Z,10.20
2023-02-21T07:03:50.485Z,10.20
2023-02-21T07:06:17.574Z,10.20
2023-02-21T07:08:44.909Z,10.20
2023-02-21T07:11:13.130Z,10.20
2023-02-21T07:13:40.702Z,10.30
2023-02-21T07:16:08.087Z,10.30
2023-02-21T07:18:35.267Z,10.30
2023-02-21T07:21:02.461Z,10.30
2023-02-21T07:23:29.691Z,10.40
2023-02-21T07:25:56.820Z,10.40
2023-02-21T07:28:24.024Z,10.40
2023-02-21T07:30:51.228Z,10.40
2023-02-21T07:33:18.399Z,10.40
2023-02-21T07:35:46.502Z,10.40
2023-02-21T07:38:24.691Z,10.40
2023-02-21T07:40:54.451Z,10.40
2023-02-21T07:43:21.781Z,10.40
2023-02-21T07:45:49.062Z,10.40
2023-02-21T07:48:16.232Z,10.50
2023-02-21T07:50:44.962Z,10.50
2023-02-21T07:53:13.296Z,10.60
2023-02-21T07:55:40.542Z,10.60
2023-02-21T07:58:08.020Z,10.70
2023-02-21T08:00:35.966Z,10.70
2023-02-21T08:03:04.100Z,10.80
2023-02-21T08:05:31.282Z,10.80
2023-02-21T08:07:58.621Z,10.90
2023-02-21T08:10:27.937Z,10.90
2023-02-21T08:12:55.631Z,11.00
2023-02-21T08:15:23.249Z,11.00
2023-02-21T08:17:51.036Z,11.10
2023-02-21T08:20:19.187Z,11.10
2023-02-21T08:22:47.238Z,11.20
2023-02-21T08:25:16.546Z,11.20
2023-02-21T08:27:44.637Z,11.20
2023-02-21T08:30:14.792Z,11.30
2023-02-21T08:32:41.975Z,11.40
2023-02-21T08:35:13.302Z,11.40
2023-02-21T08:37:45.579Z,11.50
2023-02-21T08:40:14.049Z,11.60
2023-02-21T08:42:42.051Z,11.70
2023-02-21T08:45:16.108Z,11.80
2023-02-21T08:47:43.682Z,11.90
2023-02-21T08:50:10.931Z,11.90
2023-02-21T08:52:39.416Z,11.90
2023-02-21T08:55:07.841Z,12.00
2023-02-21T08:57:35.127Z,12.00
2023-02-21T09:00:03.509Z,12.10
2023-02-21T09:02:31.474Z,12.20
2023-02-21T09:04:59.646Z,12.40
2023-02-21T09:07:28.787Z,12.50
2023-02-21T09:09:56.179Z,12.70
2023-02-21T09:12:23.389Z,12.80
2023-02-21T09:14:50.739Z,12.80
2023-02-21T09:17:17.951Z,12.90
2023-02-21T09:19:45.190Z,12.90
2023-02-21T09:22:12.581Z,12.90
2023-02-21T09:24:39.770Z,12.80
2023-02-21T09:27:07.100Z,12.70
2023-02-21T09:29:46.045Z,12.90
2023-02-21T09:32:14.274Z,13.10
2023-02-21T09:34:41.650Z,13.20
2023-02-21T09:37:09.072Z,13.30
2023-02-21T09:39:39.334Z,13.40
2023-02-21T09:42:06.978Z,13.40
2023-02-21T09:44:34.994Z,13.40
2023-02-21T09:47:06.111Z,13.50
2023-02-21T09:49:41.558Z,13.70
2023-02-21T09:52:31.605Z,13.90
2023-02-21T09:55:03.330Z,14.30
2023-02-21T09:57:30.439Z,14.40
2023-02-21T09:59:57.670Z,14.50
2023-02-21T10:02:52.979Z,14.60
2023-02-21T10:05:47.568Z,14.80
2023-02-21T10:08:39.106Z,14.80
2023-02-21T10:11:34.873Z,14.90
2023-02-21T10:14:30.590Z,14.90
2023-02-21T10:17:21.629Z,14.80
2023-02-21T10:20:02.604Z,14.70
2023-02-21T10:22:36.466Z,14.80
2023-02-21T10:25:23.880Z,14.70
2023-02-21T10:27:53.441Z,14.50
2023-02-21T10:30:41.140Z,14.40
2023-02-21T10:33:08.923Z,14.40
2023-02-21T10:35:39.619Z,14.40
2023-02-21T10:38:14.586Z,14.40
2023-02-21T10:40:47.347Z,14.50
2023-02-21T10:43:43.938Z,14.60
2023-02-21T10:46:28.182Z,14.70
2023-02-21T10:49:19.682Z,14.80
2023-02-21T10:51:46.869Z,14.90
2023-02-21T10:54:23.530Z,15.00
2023-02-21T10:56:53.132Z,15.00
2023-02-21T10:59:28.537Z,15.00
2023-02-21T11:01:57.428Z,14.90
2023-02-21T11:04:38.701Z,14.90
2023-02-21T11:07:11.797Z,14.80
2023-02-21T11:09:46.291Z,14.70
2023-02-21T11:12:23.794Z,14.70
2023-02-21T11:15:18.636Z,14.60
2023-02-21T11:17:47.105Z,14.60
2023-02-21T11:20:20.525Z,14.60
2023-02-21T11:22:49.981Z,14.60
2023-02-21T11:25:40.916Z,14.60
2023-02-21T11:28:22.733Z,14.60
2023-02-21T11:31:06.810Z,14.60
2023-02-21T11:33:39.269Z,14.70
2023-02-21T11:36:14.425Z,14.70
2023-02-21T11:38:47.359Z,14.80
2023-02-21T11:41:44.770Z,14.80
2023-02-21T11:44:36.628Z,14.70
2023-02-21T11:47:34.253Z,14.80
2023-02-21T11:50:12.694Z,14.80
2023-02-21T11:53:03.694Z,14.70
2023-02-21T11:55:30.872Z,14.80
2023-02-21T11:58:26.262Z,14.80
2023-02-21T12:01:08.411Z,14.80
2023-02-21T12:04:02.592Z,14.80
2023-02-21T12:07:03.190Z,14.80
2023-02-21T12:09:57.918Z,14.90
2023-02-21T12:13:04.899Z,15.00
2023-02-21T12:15:55.055Z,15.10
2023-02-21T12:18:48.128Z,15.10
2023-02-21T12:21:55.138Z,15.20
2023-02-21T12:24:46.819Z,15.30
2023-02-21T12:27:55.411Z,15.40
2023-02-21T12:31:02.404Z,15.50
2023-02-21T12:34:03.449Z,15.60
2023-02-21T12:36:46.731Z,15.60
2023-02-21T12:39:33.942Z,15.70
2023-02-21T12:42:40.933Z,15.90
2023-02-21T12:45:35.190Z,16.00
2023-02-21T12:48:22.141Z,16.10
2023-02-21T12:50:54.354Z,16.00
2023-02-21T12:54:01.441Z,16.00
2023-02-21T12:56:35.334Z,16.00
2023-02-21T12:59:31.219Z,16.00
2023-02-21T13:02:38.280Z,16.10
2023-02-21T13:05:15.082Z,16.30
2023-02-21T13:07:57.672Z,16.20
2023-02-21T13:10:50.632Z,16.30
2023-02-21T13:13:25.794Z,16.30
2023-02-21T13:15:54.906Z,16.30
2023-02-21T13:18:32.986Z,16.30
2023-02-21T13:21:30.219Z,16.40
2023-02-21T13:24:30.289Z,16.50
2023-02-21T13:27:24.366Z,16.70
2023-02-21T13:29:52.010Z,16.90
2023-02-21T13:32:20.497Z,16.90
2023-02-21T13:35:02.297Z,17.00
2023-02-21T13:37:33.060Z,17.00
2023-02-21T13:40:26.226Z,17.00
2023-02-21T13:43:20.622Z,17.00
2023-02-21T13:45:47.941Z,17.00
2023-02-21T13:48:23.663Z,17.10
2023-02-21T13:50:57.047Z,17.10
2023-02-21T13:53:35.584Z,17.10
2023-02-21T13:56:13.440Z,17.10
2023-02-21T13:58:46.796Z,17.20
2023-02-21T14:01:26.876Z,17.20
2023-02-21T14:03:59.891Z,17.30
2023-02-21T14:06:34.022Z,17.50
2023-02-21T14:09:18.331Z,17.60
2023-02-21T14:11:50.153Z,17.60
2023-02-21T14:14:39.704Z,17.60
2023-02-21T14:17:10.830Z,17.50
2023-02-21T14:19:49.393Z,17.50
2023-02-21T14:22:24.174Z,17.50
2023-02-21T14:25:03.715Z,17.50
2023-02-21T14:27:34.454Z,17.50
2023-02-21T14:30:27.536Z,17.50
2023-02-21T14:32:59.827Z,17.60
2023-02-21T14:35:41.112Z,17.60
2023-02-21T14:38:37.034Z,17.70
2023-02-21T14:41:36.092Z,17.70
2023-02-21T14:44:31.214Z,17.80
2023-02-21T14:47:08.529Z,17.80
2023-02-21T14:50:08.426Z,17.90
2023-02-21T14:53:03.412Z,17.90
2023-02-21T14:56:10.462Z,17.90
2023-02-21T14:59:13.764Z,17.80
2023-02-21T15:02:18.052Z,17.80
2023-02-21T15:05:12.639Z,17.80
2023-02-21T15:08:16.865Z,17.80
2023-02-21T15:10:49.772Z,17.80
2023-02-21T15:13:33.081Z,17.70
2023-02-21T15:16:08.416Z,17.70
2023-02-21T15:18:38.147Z,17.60
2023-02-21T15:21:20.337Z,17.60
2023-02-21T15:24:15.447Z,17.50
2023-02-21T15:26:42.792Z,17.50
2023-02-21T15:29:16.487Z,17.50
2023-02-21T15:31:51.340Z,17.50
2023-02-21T15:34:22.105Z,17.40
2023-02-21T15:37:02.518Z,17.40
2023-02-21T15:39:55.612Z,17.30
2023-02-21T15:42:25.575Z,17.30
2023-02-21T15:45:03.539Z,17.30
2023-02-21T15:47:34.290Z,17.20
2023-02-21T15:50:07.601Z,17.20
2023-02-21T15:52:54.665Z,17.20
2023-02-21T15:55:24.867Z,17.20
2023-02-21T15:58:31.785Z,17.20
2023-02-21T16:01:20.733Z,17.20
2023-02-21T16:03:47.936Z,17.30
2023-02-21T16:06:35.046Z,17.30
2023-02-21T16:09:25.652Z,17.30
2023-02-21T16:12:14.810Z,17.30
2023-02-21T16:15:01.046Z,17.30
2023-02-21T16:17:35.486Z,17.30
2023-02-21T16:20:31.093Z,17.30
2023-02-21T16:23:38.204Z,17.20
2023-02-21T16:26:28.390Z,17.20
2023-02-21T16:28:59.997Z,17.10
2023-02-21T16:31:33.002Z,17.10
2023-02-21T16:34:00.534Z,17.10
2023-02-21T16:36:30.373Z,17.10
2023-02-21T16:38:58.832Z,17.00
2023-02-21T16:41:26.402Z,16.90
2023-02-21T16:43:53.698Z,16.90
2023-02-21T16:46:28.304Z,16.70
2023-02-21T16:48:57.376Z,16.70
2023-02-21T16:51:33.707Z,16.60
2023-02-21T16:54:02.189Z,16.50
2023-02-21T16:56:29.560Z,16.40
2023-02-21T16:58:57.329Z,16.30
2023-02-21T17:01:32.828Z,16.40
2023-02-21T17:04:02.532Z,16.40
2023-02-21T17:06:29.714Z,16.40
2023-02-21T17:08:58.888Z,16.40
2023-02-21T17:11:27.024Z,16.30
2023-02-21T17:13:54.248Z,16.30
2023-02-21T17:16:21.738Z,16.20
2023-02-21T17:18:49.061Z,16.10
2023-02-21T17:21:16.544Z,16.00
2023-02-21T17:23:43.991Z,16.00
2023-02-21T17:26:12.420Z,15.90
2023-02-21T17:28:39.814Z,15.90
2023-02-21T17:31:07.418Z,15.90
2023-02-21T17:33:35.724Z,15.80
2023-02-21T17:36:03.073Z,15.70
2023-02-21T17:38:30.343Z,15.70
2023-02-21T17:40:57.741Z,15.60
2023-02-21T17:43:25.054Z,15.50
2023-02-21T17:45:52.221Z,15.40
2023-02-21T17:48:19.366Z,15.30
2023-02-21T17:50:46.485Z,15.30
2023-02-21T17:53:13.663Z,15.20
2023-02-21T17:55:40.818Z,15.10
2023-02-21T17:58:09.760Z,15.10
2023-02-21T18:00:37.179Z,15.00
2023-02-21T18:03:06.553Z,15.00
2023-02-21T18:05:34.021Z,14.90
2023-02-21T18:08:01.447Z,14.70
2023-02-21T18:10:28.662Z,14.70
2023-02-21T18:12:56.649Z,14.60
2023-02-21T18:15:27.517Z,14.50
2023-02-21T18:17:55.012Z,14.30
2023-02-21T18:20:22.302Z,14.30
2023-02-21T18:22:49.616Z,14.20
2023-02-21T18:25:18.713Z,14.10
2023-02-21T18:27:46.001Z,14.10
2023-02-21T18:30:13.849Z,14.00
2023-02-21T18:32:41.064Z,14.00
2023-02-21T18:35:08.414Z,13.90
2023-02-21T18:37:35.912Z,13.90
2023-02-21T18:40:05.046Z,13.90
2023-02-21T18:42:32.234Z,13.90
2023-02-21T18:44:59.456Z,13.90
2023-02-21T18:47:27.340Z,13.90
2023-02-21T18:49:56.588Z,13.90
2023-02-21T18:52:24.178Z,13.80
2023-02-21T18:54:51.728Z,13.80
2023-02-21T18:57:21.226Z,13.80
2023-02-21T18:59:48.653Z,13.80
2023-02-21T19:02:17.875Z,13.80
2023-02-21T19:04:45.828Z,13.80
2023-02-21T19:07:16.939Z,13.80
2023-02-21T19:09:50.376Z,13.70
2023-02-21T19:12:17.786Z,13.70
2023-02-21T19:14:45.030Z,13.70
2023-02-21T19:17:12.254Z,13.70
2023-02-21T19:19:39.439Z,13.70
2023-02-21T19:22:06.979Z,13.60
2023-02-21T19:24:34.129Z,13.70
2023-02-21T19:27:02.090Z,13.60
2023-02-21T19:29:29.339Z,13.50
2023-02-21T19:31:57.051Z,13.50
2023-02-21T19:34:24.430Z,13.40
2023-02-21T19:36:51.686Z,13.40
2023-02-21T19:39:19.125Z,13.40
2023-02-21T19:41:47.036Z,13.30
2023-02-21T19:44:14.683Z,13.30
2023-02-21T19:46:41.898Z,13.30
2023-02-21T19:49:18.315Z,13.20
2023-02-21T19:51:47.881Z,13.20
2023-02-21T19:54:17.227Z,13.10
2023-02-21T19:56:44.794Z,13.10
2023-02-21T19:59:12.351Z,13.10
2023-02-21T20:01:40.098Z,13.10
2023-02-21T20:04:07.632Z,13.10
2023-02-21T20:06:36.292Z,13.20
2023-02-21T20:09:07.330Z,13.30
2023-02-21T20:11:35.892Z,13.20
2023-02-21T20:14:03.043Z,13.10
2023-02-21T20:16:30.257Z,13.20
2023-02-21T20:18:58.043Z,13.20
2023-02-21T20:21:29.098Z,13.20
2023-02-21T20:23:57.962Z,13.20
2023-02-21T20:26:25.984Z,13.20
2023-02-21T20:28:54.037Z,13.20
2023-02-21T20:31:23.952Z,13.20
2023-02-21T20:33:51.221Z,13.20
2023-02-21T20:36:27.917Z,13.20
2023-02-21T20:38:55.175Z,13.20
2023-02-21T20:41:22.679Z,13.20
2023-02-21T20:43:49.945Z,13.30
2023-02-21T20:46:22.103Z,13.20
2023-02-21T20:48:50.067Z,13.30
2023-02-21T20:51:18.546Z,13.20
2023-02-21T20:53:49.534Z,13.20
2023-02-21T20:56:16.775Z,13.20
2023-02-21T20:58:43.929Z,13.10
2023-02-21T21:01:15.416Z,13.10
2023-02-21T21:03:42.897Z,13.10
2023-02-21T21:06:11.783Z,13.10
2023-02-21T21:08:39.005Z,13.10
2023-02-21T21:11:08.944Z,13.10
2023-02-21T21:13:36.642Z,13.10
2023-02-21T21:16:05.327Z,13.20
2023-02-21T21:18:33.415Z,13.30
2023-02-21T21:21:00.604Z,13.30
2023-02-21T21:23:27.838Z,13.30
2023-02-21T21:25:54.914Z,13.30
2023-02-21T21:28:22.161Z,13.30
2023-02-21T21:30:49.461Z,13.30
2023-02-21T21:33:19.826Z,13.30
2023-02-21T21:35:46.966Z,13.30
2023-02-21T21:38:16.039Z,13.30
2023-02-21T21:40:47.895Z,13.20
2023-02-21T21:43:15.388Z,13.20
2023-02-21T21:45:44.624Z,13.20
2023-02-21T21:48:14.795Z,13.20
2023-02-21T21:50:44.954Z,13.20
2023-02-21T21:53:12.446Z,13.20
2023-02-21T21:55:39.733Z,13.30
2023-02-21T21:58:10.750Z,13.30
2023-02-21T22:00:42.166Z,13.30
2023-02-21T22:03:14.591Z,13.40
2023-02-21T22:05:43.490Z,13.40
2023-02-21T22:08:16.649Z,13.40
2023-02-21T22:10:45.852Z,13.40
2023-02-21T22:13:20.996Z,13.40
2023-02-21T22:15:48.791Z,13.40
2023-02-21T22:18:20.139Z,13.50
2023-02-21T22:20:51.438Z,13.50
2023-02-21T22:23:27.147Z,13.50
2023-02-21T22:25:54.424Z,13.40
2023-02-21T22:28:21.524Z,13.40
2023-02-21T22:30:50.400Z,13.30
2023-02-21T22:33:20.161Z,13.30
2023-02-21T22:35:47.499Z,13.20
2023-02-21T22:38:17.450Z,13.20
2023-02-21T22:40:46.564Z,13.20
2023-02-21T22:43:14.111Z,13.10
2023-02-21T22:45:47.968Z,13.10
2023-02-21T22:48:18.250Z,13.10
2023-02-21T22:50:47.778Z,13.10
2023-02-21T22:53:19.010Z,13.10
2023-02-21T22:55:51.805Z,13.00
2023-02-21T22:58:20.683Z,12.90
2023-02-21T23:00:49.248Z,12.90
2023-02-21T23:03:17.894Z,12.90
2023-02-21T23:05:50.138Z,12.80
2023-02-21T23:08:20.000Z,12.80
2023-02-21T23:10:48.243Z,12.90
2023-02-21T23:13:19.014Z,12.90
2023-02-21T23:15:47.566Z,12.90
2023-02-21T23:18:20.923Z,12.90
2023-02-21T23:20:52.798Z,12.90
2023-02-21T23:23:26.257Z,13.00
2023-02-21T23:25:59.472Z,13.00
2023-02-21T23:28:29.166Z,13.10
2023-02-21T23:30:58.224Z,13.10
2023-02-21T23:33:28.564Z,13.10
2023-02-21T23:35:57.541Z,13.10
2023-02-21T23:38:28.344Z,13.10
2023-02-21T23:40:58.252Z,13.10
2023-02-21T23:43:29.650Z,13.10
2023-02-21T23:45:59.026Z,13.00
2023-02-21T23:48:26.785Z,13.10
2023-02-21T23:50:58.233Z,13.10
2023-02-21T23:53:28.476Z,13.00
2023-02-21T23:55:57.813Z,13.10
2023-02-21T23:58:28.143Z,13.00
